Larvik — C6VC2 — position and weather

sailwx.info

Track history (hours):
 
Tides and Currents Weather Stations Pressure Air Temp Water Temp Dewpoint Dewpoint Depression Visibility Wind Speed Wind Dir Waves Ship Positions

Larvik

Last reported at 2016-Aug-24 02:11 UTC. Time now 2016-Aug-31 16:04 UTC.
Position N 28°36' W 093°13'.

Length 214 m; draft 7.3 m.

Type: Tanker. MMSI: 308371000.

Date/timePositionNaut miles runAvg speedWind from/ knotsBaromVisibWave heightAir tempDewpointWater temp
2016-Aug-24 02:11N 28°36' W 093°13'911.9
2016-Aug-24 01:28N 28°43' W 093°19'1411.8
2016-Aug-24 00:18N 28°54' W 093°28'1011.8
2016-Aug-23 23:29N 29°01' W 093°34'25 4.7
2016-Aug-23 18:16N 29°25' W 093°42'2 2.5
2016-Aug-23 17:30N 29°26' W 093°40'1210.9
2016-Aug-23 16:25N 29°36' W 093°48'12 9.9
2016-Aug-23 15:10N 29°46' W 093°55'5 6.5
2016-Aug-23 14:24N 29°50' W 093°58'0 0.2
2016-Aug-23 12:17N 29°51' W 093°58'0 0.0
2016-Aug-23 11:11N 29°51' W 093°58'0 0.0
2016-Aug-23 10:26N 29°51' W 093°58'0 0.0
2016-Aug-23 09:20N 29°51' W 093°58'0 0.0
2016-Aug-23 08:32N 29°51' W 093°58'0 0.0
2016-Aug-23 07:32N 29°51' W 093°58'0 0.0
2016-Aug-23 06:32N 29°51' W 093°58'0 0.0
2016-Aug-23 05:32N 29°51' W 093°58'0 0.0
2016-Aug-23 04:29N 29°51' W 093°58'0 0.0
2016-Aug-23 03:29N 29°51' W 093°58'0 0.0
2016-Aug-23 02:32N 29°51' W 093°58'0 0.0
2016-Aug-23 01:32N 29°51' W 093°58'0 0.0
2016-Aug-23 00:29N 29°51' W 093°58'0 0.0
2016-Aug-22 23:29N 29°51' W 093°58'0 0.0
2016-Aug-22 22:32N 29°51' W 093°58'0 0.0
2016-Aug-22 21:32N 29°51' W 093°58'0 0.0
2016-Aug-22 20:29N 29°51' W 093°58'0 0.0
2016-Aug-22 15:11N 29°51' W 093°58'0 0.0
2016-Aug-22 14:23N 29°51' W 093°58'0 0.0
2016-Aug-22 13:29N 29°51' W 093°58'0 0.0
2016-Aug-22 12:32N 29°51' W 093°58'0 0.0
2016-Aug-22 11:29N 29°51' W 093°58'0 0.0
2016-Aug-22 10:26N 29°51' W 093°58'0 0.0
2016-Aug-22 09:29N 29°51' W 093°58'0 0.0
2016-Aug-22 08:29N 29°51' W 093°58'0 0.0
2016-Aug-22 07:29N 29°51' W 093°58'0 0.0
2016-Aug-22 05:26N 29°51' W 093°58'0 0.0
2016-Aug-22 04:23N 29°51' W 093°58'0 0.0
2016-Aug-22 03:29N 29°51' W 093°58'0 0.0
2016-Aug-22 02:29N 29°51' W 093°58'0 0.0
2016-Aug-21 23:05N 29°51' W 093°58'0 0.0
2016-Aug-21 19:29N 29°51' W 093°58'0 0.0
2016-Aug-21 17:29N 29°51' W 093°58'0 0.0
2016-Aug-21 16:23N 29°51' W 093°58'0 0.0
2016-Aug-21 13:29N 29°51' W 093°58'0 0.0
2016-Aug-21 12:29N 29°51' W 093°58'0 0.0
2016-Aug-21 11:29N 29°51' W 093°58'0 0.0
2016-Aug-21 10:29N 29°51' W 093°58'0 0.0
2016-Aug-21 09:23N 29°51' W 093°58'0 0.0
2016-Aug-21 08:32N 29°51' W 093°58'0 0.0
2016-Aug-21 07:23N 29°51' W 093°58'0 0.0
2016-Aug-21 06:29N 29°51' W 093°58'0 0.0
2016-Aug-21 05:29N 29°51' W 093°58'0 0.0
2016-Aug-21 04:26N 29°51' W 093°58'0 0.0
2016-Aug-21 03:32N 29°51' W 093°58'1 0.7
2016-Aug-21 02:33N 29°50' W 093°58'7 6.2
2016-Aug-21 01:28N 29°45' W 093°53'10 9.7
2016-Aug-21 00:26N 29°36' W 093°48'15 0.3
2016-Aug-19 01:09N 29°24' W 093°38'0 0.0
2016-Aug-19 00:24N 29°24' W 093°38'0 0.0
2016-Aug-18 08:21N 29°24' W 093°38'0 0.0
2016-Aug-18 06:27N 29°24' W 093°38'0 0.0
2016-Aug-18 04:27N 29°24' W 093°38'0 0.0
2016-Aug-17 22:30N 29°24' W 093°38'0 0.0
2016-Aug-17 07:21N 29°24' W 093°38'0 0.0
2016-Aug-16 15:33N 29°24' W 093°38'10 7.2
2016-Aug-16 14:10N 29°14' W 093°39'  
Track history (hours):
 
Tides and Currents Weather Stations Pressure Air Temp Water Temp Dewpoint Dewpoint Depression Visibility Wind Speed Wind Dir Waves Ship Positions

Larvik

Last reported at 2016-Aug-24 02:11 UTC. Time now 2016-Aug-31 16:04 UTC.
Position N 28°36' W 093°13'.

Length 214 m; draft 7.3 m.

Type: Tanker. MMSI: 308371000.

Date/timePositionNaut miles runAvg speedWind from/ knotsBaromVisibWave heightAir tempDewpointWater temp
2016-Aug-24 02:11N 28°36' W 093°13'911.9
2016-Aug-24 01:28N 28°43' W 093°19'1411.8
2016-Aug-24 00:18N 28°54' W 093°28'1011.8
2016-Aug-23 23:29N 29°01' W 093°34'25 4.7
2016-Aug-23 18:16N 29°25' W 093°42'2 2.5
2016-Aug-23 17:30N 29°26' W 093°40'1210.9
2016-Aug-23 16:25N 29°36' W 093°48'12 9.9
2016-Aug-23 15:10N 29°46' W 093°55'5 6.5
2016-Aug-23 14:24N 29°50' W 093°58'0 0.2
2016-Aug-23 12:17N 29°51' W 093°58'0 0.0
2016-Aug-23 11:11N 29°51' W 093°58'0 0.0
2016-Aug-23 10:26N 29°51' W 093°58'0 0.0
2016-Aug-23 09:20N 29°51' W 093°58'0 0.0
2016-Aug-23 08:32N 29°51' W 093°58'0 0.0
2016-Aug-23 07:32N 29°51' W 093°58'0 0.0
2016-Aug-23 06:32N 29°51' W 093°58'0 0.0
2016-Aug-23 05:32N 29°51' W 093°58'0 0.0
2016-Aug-23 04:29N 29°51' W 093°58'0 0.0
2016-Aug-23 03:29N 29°51' W 093°58'0 0.0
2016-Aug-23 02:32N 29°51' W 093°58'0 0.0
2016-Aug-23 01:32N 29°51' W 093°58'0 0.0
2016-Aug-23 00:29N 29°51' W 093°58'0 0.0
2016-Aug-22 23:29N 29°51' W 093°58'0 0.0
2016-Aug-22 22:32N 29°51' W 093°58'0 0.0
2016-Aug-22 21:32N 29°51' W 093°58'0 0.0
2016-Aug-22 20:29N 29°51' W 093°58'0 0.0
2016-Aug-22 15:11N 29°51' W 093°58'0 0.0
2016-Aug-22 14:23N 29°51' W 093°58'0 0.0
2016-Aug-22 13:29N 29°51' W 093°58'0 0.0
2016-Aug-22 12:32N 29°51' W 093°58'0 0.0
2016-Aug-22 11:29N 29°51' W 093°58'0 0.0
2016-Aug-22 10:26N 29°51' W 093°58'0 0.0
2016-Aug-22 09:29N 29°51' W 093°58'0 0.0
2016-Aug-22 08:29N 29°51' W 093°58'0 0.0
2016-Aug-22 07:29N 29°51' W 093°58'0 0.0
2016-Aug-22 05:26N 29°51' W 093°58'0 0.0
2016-Aug-22 04:23N 29°51' W 093°58'0 0.0
2016-Aug-22 03:29N 29°51' W 093°58'0 0.0
2016-Aug-22 02:29N 29°51' W 093°58'0 0.0
2016-Aug-21 23:05N 29°51' W 093°58'0 0.0
2016-Aug-21 19:29N 29°51' W 093°58'0 0.0
2016-Aug-21 17:29N 29°51' W 093°58'0 0.0
2016-Aug-21 16:23N 29°51' W 093°58'0 0.0
2016-Aug-21 13:29N 29°51' W 093°58'0 0.0
2016-Aug-21 12:29N 29°51' W 093°58'0 0.0
2016-Aug-21 11:29N 29°51' W 093°58'0 0.0
2016-Aug-21 10:29N 29°51' W 093°58'0 0.0
2016-Aug-21 09:23N 29°51' W 093°58'0 0.0
2016-Aug-21 08:32N 29°51' W 093°58'0 0.0
2016-Aug-21 07:23N 29°51' W 093°58'0 0.0
2016-Aug-21 06:29N 29°51' W 093°58'0 0.0
2016-Aug-21 05:29N 29°51' W 093°58'0 0.0
2016-Aug-21 04:26N 29°51' W 093°58'0 0.0
2016-Aug-21 03:32N 29°51' W 093°58'1 0.7
2016-Aug-21 02:33N 29°50' W 093°58'7 6.2
2016-Aug-21 01:28N 29°45' W 093°53'10 9.7
2016-Aug-21 00:26N 29°36' W 093°48'15 0.3
2016-Aug-19 01:09N 29°24' W 093°38'0 0.0
2016-Aug-19 00:24N 29°24' W 093°38'0 0.0
2016-Aug-18 08:21N 29°24' W 093°38'0 0.0
2016-Aug-18 06:27N 29°24' W 093°38'0 0.0
2016-Aug-18 04:27N 29°24' W 093°38'0 0.0
2016-Aug-17 22:30N 29°24' W 093°38'0 0.0
2016-Aug-17 07:21N 29°24' W 093°38'0 0.0
2016-Aug-16 15:33N 29°24' W 093°38'10 7.2
2016-Aug-16 14:10N 29°14' W 093°39'  

Dump ship's entire track history